sensor_id;sensor_type;location;lat;lon;timestamp;P1;durP1;ratioP1;P2;durP2;ratioP2
11342;SDS011;5726;42.160;24.746;2024-01-07T00:00:28;56.33;;;32.10;;
11342;SDS011;5726;42.160;24.746;2024-01-07T00:02:55;55.23;;;32.30;;
11342;SDS011;5726;42.160;24.746;2024-01-07T00:05:20;57.33;;;32.97;;
11342;SDS011;5726;42.160;24.746;2024-01-07T00:07:46;58.67;;;32.70;;
11342;SDS011;5726;42.160;24.746;2024-01-07T00:10:13;52.97;;;32.67;;
11342;SDS011;5726;42.160;24.746;2024-01-07T00:12:38;57.50;;;32.23;;
11342;SDS011;5726;42.160;24.746;2024-01-07T00:15:04;55.60;;;33.27;;
11342;SDS011;5726;42.160;24.746;2024-01-07T00:17:30;53.40;;;33.00;;
11342;SDS011;5726;42.160;24.746;2024-01-07T00:19:55;56.83;;;31.90;;
11342;SDS011;5726;42.160;24.746;2024-01-07T00:22:21;51.30;;;30.17;;
11342;SDS011;5726;42.160;24.746;2024-01-07T00:24:46;54.97;;;31.07;;
11342;SDS011;5726;42.160;24.746;2024-01-07T00:27:12;49.70;;;30.17;;
11342;SDS011;5726;42.160;24.746;2024-01-07T00:29:37;46.77;;;27.73;;
11342;SDS011;5726;42.160;24.746;2024-01-07T00:32:03;53.47;;;30.57;;
11342;SDS011;5726;42.160;24.746;2024-01-07T00:34:29;51.63;;;30.73;;
11342;SDS011;5726;42.160;24.746;2024-01-07T00:36:54;54.23;;;29.60;;
11342;SDS011;5726;42.160;24.746;2024-01-07T00:39:20;51.57;;;29.67;;
11342;SDS011;5726;42.160;24.746;2024-01-07T00:41:46;47.13;;;27.30;;
11342;SDS011;5726;42.160;24.746;2024-01-07T00:44:11;50.00;;;28.50;;
11342;SDS011;5726;42.160;24.746;2024-01-07T00:46:37;44.53;;;26.90;;
11342;SDS011;5726;42.160;24.746;2024-01-07T00:49:03;44.80;;;27.40;;
11342;SDS011;5726;42.160;24.746;2024-01-07T00:51:28;52.30;;;27.67;;
11342;SDS011;5726;42.160;24.746;2024-01-07T00:53:54;48.00;;;26.40;;
11342;SDS011;5726;42.160;24.746;2024-01-07T00:56:19;49.57;;;27.07;;
11342;SDS011;5726;42.160;24.746;2024-01-07T00:58:45;46.77;;;25.47;;
11342;SDS011;5726;42.160;24.746;2024-01-07T01:01:10;42.13;;;25.83;;
11342;SDS011;5726;42.160;24.746;2024-01-07T01:03:36;45.30;;;25.77;;
11342;SDS011;5726;42.160;24.746;2024-01-07T01:06:01;45.90;;;25.50;;
11342;SDS011;5726;42.160;24.746;2024-01-07T01:08:27;43.73;;;26.03;;
11342;SDS011;5726;42.160;24.746;2024-01-07T01:10:53;41.10;;;25.57;;
11342;SDS011;5726;42.160;24.746;2024-01-07T01:13:18;48.57;;;27.43;;
11342;SDS011;5726;42.160;24.746;2024-01-07T01:15:44;43.80;;;25.30;;
11342;SDS011;5726;42.160;24.746;2024-01-07T01:18:09;46.80;;;26.27;;
11342;SDS011;5726;42.160;24.746;2024-01-07T01:20:35;43.60;;;25.73;;
11342;SDS011;5726;42.160;24.746;2024-01-07T01:23:00;41.43;;;25.67;;
11342;SDS011;5726;42.160;24.746;2024-01-07T01:25:26;42.90;;;25.60;;
11342;SDS011;5726;42.160;24.746;2024-01-07T01:27:52;46.20;;;25.23;;
11342;SDS011;5726;42.160;24.746;2024-01-07T01:30:17;47.77;;;26.47;;
11342;SDS011;5726;42.160;24.746;2024-01-07T01:32:43;47.80;;;26.50;;
11342;SDS011;5726;42.160;24.746;2024-01-07T01:35:09;48.57;;;27.73;;
11342;SDS011;5726;42.160;24.746;2024-01-07T01:37:34;45.03;;;27.63;;
11342;SDS011;5726;42.160;24.746;2024-01-07T01:40:00;42.97;;;25.30;;
11342;SDS011;5726;42.160;24.746;2024-01-07T01:42:26;40.63;;;24.37;;
11342;SDS011;5726;42.160;24.746;2024-01-07T01:44:51;41.37;;;25.73;;
11342;SDS011;5726;42.160;24.746;2024-01-07T01:47:18;39.47;;;24.87;;
11342;SDS011;5726;42.160;24.746;2024-01-07T01:49:45;43.73;;;25.90;;
11342;SDS011;5726;42.160;24.746;2024-01-07T01:52:11;48.10;;;27.30;;
11342;SDS011;5726;42.160;24.746;2024-01-07T01:54:38;44.43;;;26.33;;
11342;SDS011;5726;42.160;24.746;2024-01-07T01:57:04;45.63;;;26.10;;
11342;SDS011;5726;42.160;24.746;2024-01-07T01:59:30;42.67;;;26.13;;
11342;SDS011;5726;42.160;24.746;2024-01-07T02:01:58;46.07;;;24.87;;
11342;SDS011;5726;42.160;24.746;2024-01-07T02:04:24;40.77;;;25.63;;
11342;SDS011;5726;42.160;24.746;2024-01-07T02:06:50;43.67;;;25.03;;
11342;SDS011;5726;42.160;24.746;2024-01-07T02:09:15;46.87;;;25.70;;
11342;SDS011;5726;42.160;24.746;2024-01-07T02:11:41;47.27;;;26.93;;
11342;SDS011;5726;42.160;24.746;2024-01-07T02:14:06;49.13;;;25.63;;
11342;SDS011;5726;42.160;24.746;2024-01-07T02:16:32;68.70;;;41.23;;
11342;SDS011;5726;42.160;24.746;2024-01-07T02:18:58;70.80;;;43.07;;
11342;SDS011;5726;42.160;24.746;2024-01-07T02:21:23;87.73;;;53.37;;
11342;SDS011;5726;42.160;24.746;2024-01-07T02:23:49;42.77;;;27.20;;
11342;SDS011;5726;42.160;24.746;2024-01-07T02:26:14;42.77;;;26.43;;
11342;SDS011;5726;42.160;24.746;2024-01-07T02:28:41;42.83;;;26.03;;
11342;SDS011;5726;42.160;24.746;2024-01-07T02:31:06;44.50;;;25.67;;
11342;SDS011;5726;42.160;24.746;2024-01-07T02:33:32;45.07;;;26.40;;
11342;SDS011;5726;42.160;24.746;2024-01-07T02:35:57;44.60;;;25.47;;
11342;SDS011;5726;42.160;24.746;2024-01-07T02:38:23;45.37;;;26.97;;
11342;SDS011;5726;42.160;24.746;2024-01-07T02:40:48;49.93;;;30.93;;
11342;SDS011;5726;42.160;24.746;2024-01-07T02:43:14;86.07;;;54.13;;
11342;SDS011;5726;42.160;24.746;2024-01-07T02:45:39;82.20;;;49.97;;
11342;SDS011;5726;42.160;24.746;2024-01-07T02:48:05;50.97;;;30.77;;
11342;SDS011;5726;42.160;24.746;2024-01-07T02:50:32;43.73;;;26.07;;
11342;SDS011;5726;42.160;24.746;2024-01-07T02:52:57;41.53;;;24.97;;
11342;SDS011;5726;42.160;24.746;2024-01-07T02:55:23;34.37;;;21.63;;
11342;SDS011;5726;42.160;24.746;2024-01-07T02:57:48;36.73;;;21.77;;
11342;SDS011;5726;42.160;24.746;2024-01-07T03:00:14;34.93;;;21.80;;
11342;SDS011;5726;42.160;24.746;2024-01-07T03:02:40;33.87;;;21.20;;
11342;SDS011;5726;42.160;24.746;2024-01-07T03:05:05;56.33;;;34.20;;
11342;SDS011;5726;42.160;24.746;2024-01-07T03:07:31;63.13;;;36.23;;
11342;SDS011;5726;42.160;24.746;2024-01-07T03:09:57;33.50;;;21.60;;
11342;SDS011;5726;42.160;24.746;2024-01-07T03:12:22;33.73;;;21.20;;
11342;SDS011;5726;42.160;24.746;2024-01-07T03:14:48;44.03;;;25.53;;
11342;SDS011;5726;42.160;24.746;2024-01-07T03:17:13;38.07;;;22.63;;
11342;SDS011;5726;42.160;24.746;2024-01-07T03:19:42;37.17;;;21.50;;
11342;SDS011;5726;42.160;24.746;2024-01-07T03:22:07;35.63;;;22.13;;
11342;SDS011;5726;42.160;24.746;2024-01-07T03:24:33;34.57;;;21.13;;
11342;SDS011;5726;42.160;24.746;2024-01-07T03:26:59;38.57;;;23.53;;
11342;SDS011;5726;42.160;24.746;2024-01-07T03:29:24;43.20;;;23.20;;
11342;SDS011;5726;42.160;24.746;2024-01-07T03:31:50;45.53;;;25.33;;
11342;SDS011;5726;42.160;24.746;2024-01-07T03:34:16;45.93;;;27.40;;
11342;SDS011;5726;42.160;24.746;2024-01-07T03:36:42;43.60;;;23.80;;
11342;SDS011;5726;42.160;24.746;2024-01-07T03:39:07;40.30;;;23.43;;
11342;SDS011;5726;42.160;24.746;2024-01-07T03:41:33;45.37;;;25.10;;
11342;SDS011;5726;42.160;24.746;2024-01-07T03:43:59;48.57;;;28.40;;
11342;SDS011;5726;42.160;24.746;2024-01-07T03:46:24;48.40;;;27.13;;
11342;SDS011;5726;42.160;24.746;2024-01-07T03:48:50;46.50;;;26.57;;
11342;SDS011;5726;42.160;24.746;2024-01-07T03:51:15;45.33;;;27.13;;
11342;SDS011;5726;42.160;24.746;2024-01-07T03:53:41;46.13;;;28.30;;
11342;SDS011;5726;42.160;24.746;2024-01-07T03:56:06;47.43;;;28.67;;
11342;SDS011;5726;42.160;24.746;2024-01-07T03:58:32;43.73;;;28.33;;
11342;SDS011;5726;42.160;24.746;2024-01-07T04:00:57;49.10;;;29.40;;
11342;SDS011;5726;42.160;24.746;2024-01-07T04:03:23;47.70;;;26.87;;
11342;SDS011;5726;42.160;24.746;2024-01-07T04:05:48;42.10;;;27.43;;
11342;SDS011;5726;42.160;24.746;2024-01-07T04:08:14;39.70;;;25.53;;
11342;SDS011;5726;42.160;24.746;2024-01-07T04:10:41;41.53;;;25.83;;
11342;SDS011;5726;42.160;24.746;2024-01-07T04:13:06;39.67;;;25.07;;
11342;SDS011;5726;42.160;24.746;2024-01-07T04:15:33;43.90;;;26.40;;
11342;SDS011;5726;42.160;24.746;2024-01-07T04:18:00;41.00;;;26.57;;
11342;SDS011;5726;42.160;24.746;2024-01-07T04:20:27;43.13;;;27.67;;
11342;SDS011;5726;42.160;24.746;2024-01-07T04:22:53;45.03;;;26.83;;
11342;SDS011;5726;42.160;24.746;2024-01-07T04:25:18;40.17;;;25.27;;
11342;SDS011;5726;42.160;24.746;2024-01-07T04:27:44;40.60;;;24.73;;
11342;SDS011;5726;42.160;24.746;2024-01-07T04:30:09;43.40;;;25.77;;
11342;SDS011;5726;42.160;24.746;2024-01-07T04:32:35;43.17;;;26.33;;
11342;SDS011;5726;42.160;24.746;2024-01-07T04:35:00;49.07;;;25.57;;
11342;SDS011;5726;42.160;24.746;2024-01-07T04:37:26;42.53;;;25.27;;
11342;SDS011;5726;42.160;24.746;2024-01-07T04:39:52;42.10;;;25.37;;
11342;SDS011;5726;42.160;24.746;2024-01-07T04:42:17;43.90;;;25.13;;
11342;SDS011;5726;42.160;24.746;2024-01-07T04:44:43;45.70;;;24.90;;
11342;SDS011;5726;42.160;24.746;2024-01-07T04:47:27;49.47;;;27.20;;
11342;SDS011;5726;42.160;24.746;2024-01-07T04:49:57;50.70;;;27.00;;
11342;SDS011;5726;42.160;24.746;2024-01-07T04:52:23;48.20;;;26.13;;
11342;SDS011;5726;42.160;24.746;2024-01-07T04:54:52;42.90;;;24.87;;
11342;SDS011;5726;42.160;24.746;2024-01-07T04:57:19;34.53;;;19.23;;
11342;SDS011;5726;42.160;24.746;2024-01-07T04:59:45;44.47;;;25.53;;
11342;SDS011;5726;42.160;24.746;2024-01-07T05:02:14;37.03;;;21.30;;
11342;SDS011;5726;42.160;24.746;2024-01-07T05:04:39;36.67;;;21.50;;
11342;SDS011;5726;42.160;24.746;2024-01-07T05:07:05;31.37;;;18.27;;
11342;SDS011;5726;42.160;24.746;2024-01-07T05:09:31;40.40;;;24.97;;
11342;SDS011;5726;42.160;24.746;2024-01-07T05:11:58;47.70;;;27.70;;
11342;SDS011;5726;42.160;24.746;2024-01-07T05:14:23;36.20;;;23.50;;
11342;SDS011;5726;42.160;24.746;2024-01-07T05:16:49;37.00;;;20.20;;
11342;SDS011;5726;42.160;24.746;2024-01-07T05:19:15;41.60;;;24.00;;
11342;SDS011;5726;42.160;24.746;2024-01-07T05:21:40;34.57;;;19.80;;
11342;SDS011;5726;42.160;24.746;2024-01-07T05:24:06;30.77;;;19.30;;
11342;SDS011;5726;42.160;24.746;2024-01-07T05:26:37;43.70;;;24.97;;
11342;SDS011;5726;42.160;24.746;2024-01-07T05:29:09;33.70;;;19.90;;
11342;SDS011;5726;42.160;24.746;2024-01-07T05:31:35;41.30;;;23.50;;
11342;SDS011;5726;42.160;24.746;2024-01-07T05:34:00;47.73;;;26.57;;
11342;SDS011;5726;42.160;24.746;2024-01-07T05:36:26;40.10;;;24.77;;
11342;SDS011;5726;42.160;24.746;2024-01-07T05:38:51;43.60;;;25.90;;
11342;SDS011;5726;42.160;24.746;2024-01-07T05:41:17;42.83;;;24.57;;
11342;SDS011;5726;42.160;24.746;2024-01-07T05:43:42;38.23;;;23.57;;
11342;SDS011;5726;42.160;24.746;2024-01-07T05:46:08;39.93;;;24.33;;
11342;SDS011;5726;42.160;24.746;2024-01-07T05:51:12;45.63;;;26.67;;
11342;SDS011;5726;42.160;24.746;2024-01-07T05:53:39;47.97;;;28.07;;
11342;SDS011;5726;42.160;24.746;2024-01-07T05:56:04;48.00;;;28.70;;
11342;SDS011;5726;42.160;24.746;2024-01-07T05:58:30;45.43;;;28.27;;
11342;SDS011;5726;42.160;24.746;2024-01-07T06:00:55;35.43;;;22.67;;
11342;SDS011;5726;42.160;24.746;2024-01-07T06:03:21;40.93;;;25.73;;
11342;SDS011;5726;42.160;24.746;2024-01-07T06:05:47;40.90;;;25.20;;
11342;SDS011;5726;42.160;24.746;2024-01-07T06:08:13;47.27;;;29.97;;
11342;SDS011;5726;42.160;24.746;2024-01-07T06:10:39;53.33;;;31.67;;
11342;SDS011;5726;42.160;24.746;2024-01-07T06:13:05;47.67;;;28.07;;
11342;SDS011;5726;42.160;24.746;2024-01-07T06:15:30;46.47;;;29.07;;
11342;SDS011;5726;42.160;24.746;2024-01-07T06:17:56;45.60;;;26.43;;
11342;SDS011;5726;42.160;24.746;2024-01-07T06:20:21;37.70;;;24.53;;
11342;SDS011;5726;42.160;24.746;2024-01-07T06:22:47;37.37;;;22.70;;
11342;SDS011;5726;42.160;24.746;2024-01-07T06:25:12;36.47;;;23.13;;
11342;SDS011;5726;42.160;24.746;2024-01-07T06:27:38;35.70;;;21.83;;
11342;SDS011;5726;42.160;24.746;2024-01-07T06:30:05;32.83;;;21.30;;
11342;SDS011;5726;42.160;24.746;2024-01-07T06:32:31;33.83;;;21.73;;
11342;SDS011;5726;42.160;24.746;2024-01-07T06:35:00;29.87;;;19.60;;
11342;SDS011;5726;42.160;24.746;2024-01-07T06:37:25;36.23;;;23.07;;
11342;SDS011;5726;42.160;24.746;2024-01-07T06:39:56;40.13;;;23.80;;
11342;SDS011;5726;42.160;24.746;2024-01-07T06:42:23;40.73;;;24.03;;
11342;SDS011;5726;42.160;24.746;2024-01-07T06:44:49;39.00;;;23.33;;
11342;SDS011;5726;42.160;24.746;2024-01-07T06:47:14;35.73;;;22.40;;
11342;SDS011;5726;42.160;24.746;2024-01-07T06:49:40;45.83;;;29.10;;
11342;SDS011;5726;42.160;24.746;2024-01-07T06:52:06;38.27;;;24.40;;
11342;SDS011;5726;42.160;24.746;2024-01-07T06:54:32;54.47;;;32.30;;
11342;SDS011;5726;42.160;24.746;2024-01-07T06:56:58;46.20;;;28.27;;
11342;SDS011;5726;42.160;24.746;2024-01-07T06:59:23;46.97;;;28.13;;
11342;SDS011;5726;42.160;24.746;2024-01-07T07:01:49;46.13;;;27.73;;
11342;SDS011;5726;42.160;24.746;2024-01-07T07:04:14;47.27;;;28.53;;
11342;SDS011;5726;42.160;24.746;2024-01-07T07:06:40;41.07;;;26.30;;
11342;SDS011;5726;42.160;24.746;2024-01-07T07:09:05;40.70;;;24.73;;
11342;SDS011;5726;42.160;24.746;2024-01-07T07:11:31;40.73;;;23.80;;
11342;SDS011;5726;42.160;24.746;2024-01-07T07:13:57;40.50;;;23.73;;
11342;SDS011;5726;42.160;24.746;2024-01-07T07:16:22;38.60;;;24.47;;
11342;SDS011;5726;42.160;24.746;2024-01-07T07:18:48;55.23;;;32.80;;
11342;SDS011;5726;42.160;24.746;2024-01-07T07:21:13;41.83;;;26.47;;
11342;SDS011;5726;42.160;24.746;2024-01-07T07:23:39;43.83;;;27.10;;
11342;SDS011;5726;42.160;24.746;2024-01-07T07:26:04;44.00;;;25.87;;
11342;SDS011;5726;42.160;24.746;2024-01-07T07:28:31;40.10;;;24.97;;
11342;SDS011;5726;42.160;24.746;2024-01-07T07:30:56;48.77;;;26.47;;
11342;SDS011;5726;42.160;24.746;2024-01-07T07:33:22;38.47;;;25.60;;
11342;SDS011;5726;42.160;24.746;2024-01-07T07:35:48;29.03;;;19.27;;
11342;SDS011;5726;42.160;24.746;2024-01-07T07:38:13;55.63;;;28.60;;
11342;SDS011;5726;42.160;24.746;2024-01-07T07:40:39;49.23;;;26.67;;
11342;SDS011;5726;42.160;24.746;2024-01-07T07:43:05;39.30;;;25.97;;
11342;SDS011;5726;42.160;24.746;2024-01-07T07:45:30;39.53;;;25.50;;
11342;SDS011;5726;42.160;24.746;2024-01-07T07:47:56;46.23;;;27.23;;
11342;SDS011;5726;42.160;24.746;2024-01-07T07:50:21;37.50;;;24.40;;
11342;SDS011;5726;42.160;24.746;2024-01-07T07:52:47;45.07;;;26.90;;
11342;SDS011;5726;42.160;24.746;2024-01-07T07:55:12;41.13;;;25.90;;
11342;SDS011;5726;42.160;24.746;2024-01-07T07:57:38;45.17;;;28.80;;
11342;SDS011;5726;42.160;24.746;2024-01-07T08:00:04;47.37;;;30.73;;
11342;SDS011;5726;42.160;24.746;2024-01-07T08:02:31;45.33;;;26.10;;
11342;SDS011;5726;42.160;24.746;2024-01-07T08:04:57;46.63;;;27.57;;
11342;SDS011;5726;42.160;24.746;2024-01-07T08:07:22;53.53;;;30.97;;
11342;SDS011;5726;42.160;24.746;2024-01-07T08:09:48;36.83;;;25.27;;
11342;SDS011;5726;42.160;24.746;2024-01-07T08:12:13;35.97;;;25.50;;
11342;SDS011;5726;42.160;24.746;2024-01-07T08:14:39;31.80;;;20.63;;
11342;SDS011;5726;42.160;24.746;2024-01-07T08:17:07;33.27;;;21.10;;
11342;SDS011;5726;42.160;24.746;2024-01-07T08:19:33;31.37;;;21.23;;
11342;SDS011;5726;42.160;24.746;2024-01-07T08:21:59;31.77;;;18.33;;
11342;SDS011;5726;42.160;24.746;2024-01-07T08:24:24;30.10;;;17.63;;
11342;SDS011;5726;42.160;24.746;2024-01-07T08:26:50;23.27;;;17.80;;
11342;SDS011;5726;42.160;24.746;2024-01-07T08:29:15;25.80;;;17.73;;
11342;SDS011;5726;42.160;24.746;2024-01-07T08:31:41;26.73;;;18.20;;
11342;SDS011;5726;42.160;24.746;2024-01-07T08:34:07;27.50;;;17.50;;
11342;SDS011;5726;42.160;24.746;2024-01-07T08:36:33;24.80;;;16.07;;
11342;SDS011;5726;42.160;24.746;2024-01-07T08:38:58;29.77;;;18.33;;
11342;SDS011;5726;42.160;24.746;2024-01-07T08:41:25;25.53;;;16.47;;
11342;SDS011;5726;42.160;24.746;2024-01-07T08:43:51;28.47;;;17.50;;
11342;SDS011;5726;42.160;24.746;2024-01-07T08:46:16;23.00;;;16.23;;
11342;SDS011;5726;42.160;24.746;2024-01-07T08:48:42;23.03;;;16.37;;
11342;SDS011;5726;42.160;24.746;2024-01-07T08:51:07;20.97;;;12.73;;
11342;SDS011;5726;42.160;24.746;2024-01-07T08:53:33;20.13;;;14.10;;
11342;SDS011;5726;42.160;24.746;2024-01-07T08:55:59;24.07;;;15.70;;
11342;SDS011;5726;42.160;24.746;2024-01-07T08:58:24;25.77;;;16.80;;
11342;SDS011;5726;42.160;24.746;2024-01-07T09:00:50;22.30;;;15.43;;
11342;SDS011;5726;42.160;24.746;2024-01-07T09:03:15;22.73;;;15.03;;
11342;SDS011;5726;42.160;24.746;2024-01-07T09:05:41;22.83;;;16.30;;
11342;SDS011;5726;42.160;24.746;2024-01-07T09:08:06;27.93;;;16.93;;
11342;SDS011;5726;42.160;24.746;2024-01-07T09:10:32;27.90;;;17.57;;
11342;SDS011;5726;42.160;24.746;2024-01-07T09:12:59;32.90;;;20.53;;
11342;SDS011;5726;42.160;24.746;2024-01-07T09:15:25;34.23;;;21.13;;
11342;SDS011;5726;42.160;24.746;2024-01-07T09:17:50;31.23;;;19.77;;
11342;SDS011;5726;42.160;24.746;2024-01-07T09:20:16;29.57;;;19.07;;
11342;SDS011;5726;42.160;24.746;2024-01-07T09:22:42;21.40;;;13.90;;
11342;SDS011;5726;42.160;24.746;2024-01-07T09:25:09;26.20;;;15.73;;
11342;SDS011;5726;42.160;24.746;2024-01-07T09:27:53;35.30;;;23.40;;
11342;SDS011;5726;42.160;24.746;2024-01-07T09:30:19;32.50;;;22.17;;
11342;SDS011;5726;42.160;24.746;2024-01-07T09:32:44;24.23;;;17.43;;
11342;SDS011;5726;42.160;24.746;2024-01-07T09:35:10;16.20;;;11.47;;
11342;SDS011;5726;42.160;24.746;2024-01-07T09:37:35;12.00;;;7.43;;
11342;SDS011;5726;42.160;24.746;2024-01-07T09:40:01;9.67;;;7.20;;
11342;SDS011;5726;42.160;24.746;2024-01-07T09:42:29;15.03;;;7.43;;
11342;SDS011;5726;42.160;24.746;2024-01-07T09:44:55;11.80;;;6.07;;
11342;SDS011;5726;42.160;24.746;2024-01-07T09:47:21;11.70;;;6.13;;
11342;SDS011;5726;42.160;24.746;2024-01-07T09:49:48;13.70;;;5.27;;
11342;SDS011;5726;42.160;24.746;2024-01-07T09:52:14;8.47;;;3.87;;
11342;SDS011;5726;42.160;24.746;2024-01-07T09:54:40;10.27;;;5.80;;
11342;SDS011;5726;42.160;24.746;2024-01-07T09:57:06;8.77;;;5.67;;
11342;SDS011;5726;42.160;24.746;2024-01-07T09:59:36;13.43;;;5.90;;
11342;SDS011;5726;42.160;24.746;2024-01-07T10:02:02;8.53;;;5.37;;
11342;SDS011;5726;42.160;24.746;2024-01-07T10:04:28;9.83;;;5.70;;
11342;SDS011;5726;42.160;24.746;2024-01-07T10:06:54;13.13;;;5.97;;
11342;SDS011;5726;42.160;24.746;2024-01-07T10:09:23;8.50;;;5.10;;
11342;SDS011;5726;42.160;24.746;2024-01-07T10:11:51;9.07;;;5.77;;
11342;SDS011;5726;42.160;24.746;2024-01-07T10:14:17;6.03;;;3.20;;
11342;SDS011;5726;42.160;24.746;2024-01-07T10:16:43;6.77;;;3.20;;
11342;SDS011;5726;42.160;24.746;2024-01-07T10:19:08;13.60;;;6.20;;
11342;SDS011;5726;42.160;24.746;2024-01-07T10:21:34;11.30;;;4.53;;
11342;SDS011;5726;42.160;24.746;2024-01-07T10:24:09;13.87;;;7.03;;
11342;SDS011;5726;42.160;24.746;2024-01-07T10:26:39;10.23;;;5.00;;
11342;SDS011;5726;42.160;24.746;2024-01-07T10:29:06;6.30;;;3.43;;
11342;SDS011;5726;42.160;24.746;2024-01-07T10:31:36;6.57;;;3.63;;
11342;SDS011;5726;42.160;24.746;2024-01-07T10:34:06;6.47;;;3.07;;
11342;SDS011;5726;42.160;24.746;2024-01-07T10:36:33;6.70;;;2.90;;
11342;SDS011;5726;42.160;24.746;2024-01-07T10:38:59;7.57;;;4.43;;
11342;SDS011;5726;42.160;24.746;2024-01-07T10:41:25;7.47;;;4.43;;
11342;SDS011;5726;42.160;24.746;2024-01-07T10:43:51;10.10;;;3.57;;
11342;SDS011;5726;42.160;24.746;2024-01-07T10:46:17;16.43;;;9.17;;
11342;SDS011;5726;42.160;24.746;2024-01-07T10:48:59;9.83;;;5.33;;
11342;SDS011;5726;42.160;24.746;2024-01-07T10:51:28;8.03;;;5.30;;
11342;SDS011;5726;42.160;24.746;2024-01-07T10:53:59;33.67;;;18.17;;
11342;SDS011;5726;42.160;24.746;2024-01-07T10:56:25;12.63;;;5.77;;
11342;SDS011;5726;42.160;24.746;2024-01-07T10:58:59;8.80;;;3.67;;
11342;SDS011;5726;42.160;24.746;2024-01-07T11:01:25;9.80;;;4.83;;
11342;SDS011;5726;42.160;24.746;2024-01-07T11:07:09;11.00;;;3.43;;
11342;SDS011;5726;42.160;24.746;2024-01-07T11:12:20;7.77;;;4.23;;
11342;SDS011;5726;42.160;24.746;2024-01-07T11:14:46;6.67;;;3.17;;
11342;SDS011;5726;42.160;24.746;2024-01-07T11:17:39;6.43;;;3.50;;
11342;SDS011;5726;42.160;24.746;2024-01-07T11:20:21;8.47;;;3.40;;
11342;SDS011;5726;42.160;24.746;2024-01-07T11:22:47;7.17;;;3.87;;
11342;SDS011;5726;42.160;24.746;2024-01-07T11:25:31;8.03;;;4.30;;
11342;SDS011;5726;42.160;24.746;2024-01-07T11:27:58;12.80;;;5.97;;
11342;SDS011;5726;42.160;24.746;2024-01-07T11:30:26;15.57;;;6.10;;
11342;SDS011;5726;42.160;24.746;2024-01-07T11:32:58;9.13;;;3.73;;
11342;SDS011;5726;42.160;24.746;2024-01-07T11:38:18;9.20;;;3.60;;
11342;SDS011;5726;42.160;24.746;2024-01-07T11:40:44;8.73;;;2.50;;
11342;SDS011;5726;42.160;24.746;2024-01-07T11:43:11;6.93;;;2.50;;
11342;SDS011;5726;42.160;24.746;2024-01-07T11:45:36;7.30;;;2.23;;
11342;SDS011;5726;42.160;24.746;2024-01-07T11:48:02;8.57;;;2.70;;
11342;SDS011;5726;42.160;24.746;2024-01-07T11:50:29;6.47;;;2.67;;
11342;SDS011;5726;42.160;24.746;2024-01-07T11:52:55;10.27;;;2.83;;
11342;SDS011;5726;42.160;24.746;2024-01-07T11:55:20;14.90;;;5.10;;
11342;SDS011;5726;42.160;24.746;2024-01-07T11:57:46;8.27;;;3.43;;
11342;SDS011;5726;42.160;24.746;2024-01-07T12:00:12;12.07;;;3.00;;
11342;SDS011;5726;42.160;24.746;2024-01-07T12:02:38;11.13;;;3.70;;
11342;SDS011;5726;42.160;24.746;2024-01-07T12:05:04;13.57;;;3.40;;
11342;SDS011;5726;42.160;24.746;2024-01-07T12:07:29;12.10;;;3.40;;
11342;SDS011;5726;42.160;24.746;2024-01-07T12:09:56;10.73;;;2.70;;
11342;SDS011;5726;42.160;24.746;2024-01-07T12:12:23;12.83;;;3.63;;
11342;SDS011;5726;42.160;24.746;2024-01-07T12:14:49;7.00;;;2.60;;
11342;SDS011;5726;42.160;24.746;2024-01-07T12:17:18;7.80;;;2.57;;
11342;SDS011;5726;42.160;24.746;2024-01-07T12:19:43;10.53;;;2.30;;
11342;SDS011;5726;42.160;24.746;2024-01-07T12:22:09;7.80;;;2.23;;
11342;SDS011;5726;42.160;24.746;2024-01-07T12:24:34;10.17;;;2.30;;
11342;SDS011;5726;42.160;24.746;2024-01-07T12:27:04;6.83;;;2.10;;
11342;SDS011;5726;42.160;24.746;2024-01-07T12:29:30;8.23;;;2.33;;
11342;SDS011;5726;42.160;24.746;2024-01-07T12:31:55;8.03;;;2.27;;
11342;SDS011;5726;42.160;24.746;2024-01-07T12:34:21;10.97;;;2.37;;
11342;SDS011;5726;42.160;24.746;2024-01-07T12:36:48;11.93;;;2.10;;
11342;SDS011;5726;42.160;24.746;2024-01-07T12:39:14;9.20;;;2.30;;
11342;SDS011;5726;42.160;24.746;2024-01-07T12:41:40;10.93;;;2.93;;
11342;SDS011;5726;42.160;24.746;2024-01-07T12:44:05;6.40;;;2.20;;
11342;SDS011;5726;42.160;24.746;2024-01-07T12:46:33;7.83;;;2.83;;
11342;SDS011;5726;42.160;24.746;2024-01-07T12:48:59;13.50;;;3.23;;
11342;SDS011;5726;42.160;24.746;2024-01-07T12:51:24;13.03;;;3.03;;
11342;SDS011;5726;42.160;24.746;2024-01-07T12:56:34;19.93;;;3.03;;
11342;SDS011;5726;42.160;24.746;2024-01-07T12:59:01;7.37;;;2.00;;
11342;SDS011;5726;42.160;24.746;2024-01-07T13:01:27;11.37;;;2.87;;
11342;SDS011;5726;42.160;24.746;2024-01-07T13:03:52;12.40;;;2.47;;
11342;SDS011;5726;42.160;24.746;2024-01-07T13:06:18;8.60;;;2.70;;
11342;SDS011;5726;42.160;24.746;2024-01-07T13:08:43;10.90;;;3.07;;
11342;SDS011;5726;42.160;24.746;2024-01-07T13:11:09;9.07;;;3.47;;
11342;SDS011;5726;42.160;24.746;2024-01-07T13:13:39;12.33;;;3.83;;
11342;SDS011;5726;42.160;24.746;2024-01-07T13:16:04;11.50;;;3.37;;
11342;SDS011;5726;42.160;24.746;2024-01-07T13:18:30;13.20;;;3.60;;
11342;SDS011;5726;42.160;24.746;2024-01-07T13:20:55;11.37;;;3.40;;
11342;SDS011;5726;42.160;24.746;2024-01-07T13:23:23;13.57;;;4.03;;
11342;SDS011;5726;42.160;24.746;2024-01-07T13:25:48;17.03;;;3.70;;
11342;SDS011;5726;42.160;24.746;2024-01-07T13:28:14;9.70;;;4.07;;
11342;SDS011;5726;42.160;24.746;2024-01-07T13:30:39;11.47;;;3.73;;
11342;SDS011;5726;42.160;24.746;2024-01-07T13:33:05;9.63;;;3.03;;
11342;SDS011;5726;42.160;24.746;2024-01-07T13:35:31;14.37;;;3.47;;
11342;SDS011;5726;42.160;24.746;2024-01-07T13:37:56;10.50;;;2.67;;
11342;SDS011;5726;42.160;24.746;2024-01-07T13:40:22;10.37;;;3.10;;
11342;SDS011;5726;42.160;24.746;2024-01-07T13:42:47;14.43;;;3.90;;
11342;SDS011;5726;42.160;24.746;2024-01-07T13:45:16;13.67;;;3.73;;
11342;SDS011;5726;42.160;24.746;2024-01-07T13:47:45;11.97;;;3.17;;
11342;SDS011;5726;42.160;24.746;2024-01-07T13:50:12;15.27;;;3.40;;
11342;SDS011;5726;42.160;24.746;2024-01-07T13:52:37;8.87;;;3.03;;
11342;SDS011;5726;42.160;24.746;2024-01-07T13:55:03;14.53;;;3.63;;
11342;SDS011;5726;42.160;24.746;2024-01-07T13:57:29;15.37;;;3.03;;
11342;SDS011;5726;42.160;24.746;2024-01-07T13:59:55;8.47;;;2.63;;
11342;SDS011;5726;42.160;24.746;2024-01-07T14:02:21;9.23;;;3.37;;
11342;SDS011;5726;42.160;24.746;2024-01-07T14:04:47;10.87;;;2.67;;
11342;SDS011;5726;42.160;24.746;2024-01-07T14:07:13;19.87;;;9.40;;
11342;SDS011;5726;42.160;24.746;2024-01-07T14:09:39;15.33;;;4.87;;
11342;SDS011;5726;42.160;24.746;2024-01-07T14:12:05;12.77;;;3.27;;
11342;SDS011;5726;42.160;24.746;2024-01-07T14:14:31;13.87;;;3.80;;
11342;SDS011;5726;42.160;24.746;2024-01-07T14:16:56;19.50;;;4.07;;
11342;SDS011;5726;42.160;24.746;2024-01-07T14:19:22;13.60;;;3.40;;
11342;SDS011;5726;42.160;24.746;2024-01-07T14:21:47;11.83;;;3.30;;
11342;SDS011;5726;42.160;24.746;2024-01-07T14:24:13;15.17;;;3.87;;
11342;SDS011;5726;42.160;24.746;2024-01-07T14:26:38;16.20;;;4.73;;
11342;SDS011;5726;42.160;24.746;2024-01-07T14:29:04;16.97;;;5.63;;
11342;SDS011;5726;42.160;24.746;2024-01-07T14:31:30;95.87;;;54.40;;
11342;SDS011;5726;42.160;24.746;2024-01-07T14:33:55;20.47;;;7.67;;
11342;SDS011;5726;42.160;24.746;2024-01-07T14:36:21;13.43;;;4.73;;